sensor_id;sensor_type;location;lat;lon;timestamp;temperature;humidity
4604;DHT22;2314;48.272;11.562;2023-08-20T00:01:12;20.30;99.90
4604;DHT22;2314;48.272;11.562;2023-08-20T00:03:41;20.20;99.90
4604;DHT22;2314;48.272;11.562;2023-08-20T00:06:09;20.20;99.90
4604;DHT22;2314;48.272;11.562;2023-08-20T00:08:37;20.20;99.90
4604;DHT22;2314;48.272;11.562;2023-08-20T00:11:04;20.20;99.90
4604;DHT22;2314;48.272;11.562;2023-08-20T00:13:31;20.10;99.90
4604;DHT22;2314;48.272;11.562;2023-08-20T00:16:00;20.10;99.90
4604;DHT22;2314;48.272;11.562;2023-08-20T00:18:29;20.10;99.90
4604;DHT22;2314;48.272;11.562;2023-08-20T00:20:57;20.10;99.90
4604;DHT22;2314;48.272;11.562;2023-08-20T00:23:26;20.10;99.90
4604;DHT22;2314;48.272;11.562;2023-08-20T00:25:53;20.10;99.90
4604;DHT22;2314;48.272;11.562;2023-08-20T00:28:21;20.10;99.90
4604;DHT22;2314;48.272;11.562;2023-08-20T00:30:48;20.10;99.90
4604;DHT22;2314;48.272;11.562;2023-08-20T00:33:17;20.10;99.90
4604;DHT22;2314;48.272;11.562;2023-08-20T00:35:44;20.10;99.90
4604;DHT22;2314;48.272;11.562;2023-08-20T00:38:11;20.10;99.90
4604;DHT22;2314;48.272;11.562;2023-08-20T00:40:38;20.20;99.90
4604;DHT22;2314;48.272;11.562;2023-08-20T00:43:05;20.20;99.90
4604;DHT22;2314;48.272;11.562;2023-08-20T00:45:32;20.20;99.90
4604;DHT22;2314;48.272;11.562;2023-08-20T00:48:00;20.20;99.90
4604;DHT22;2314;48.272;11.562;2023-08-20T00:50:29;20.20;99.90
4604;DHT22;2314;48.272;11.562;2023-08-20T00:52:56;20.20;99.90
4604;DHT22;2314;48.272;11.562;2023-08-20T00:55:23;20.20;99.90
4604;DHT22;2314;48.272;11.562;2023-08-20T00:57:50;20.20;99.90
4604;DHT22;2314;48.272;11.562;2023-08-20T01:00:18;20.20;99.90
4604;DHT22;2314;48.272;11.562;2023-08-20T01:02:45;20.20;99.90
4604;DHT22;2314;48.272;11.562;2023-08-20T01:05:12;20.20;99.90
4604;DHT22;2314;48.272;11.562;2023-08-20T01:10:39;20.20;99.90
4604;DHT22;2314;48.272;11.562;2023-08-20T01:13:10;20.20;99.90
4604;DHT22;2314;48.272;11.562;2023-08-20T01:15:37;20.20;99.90
4604;DHT22;2314;48.272;11.562;2023-08-20T01:18:04;20.20;99.90
4604;DHT22;2314;48.272;11.562;2023-08-20T01:20:35;20.10;99.90
4604;DHT22;2314;48.272;11.562;2023-08-20T01:26:32;20.00;99.90
4604;DHT22;2314;48.272;11.562;2023-08-20T01:29:06;19.90;99.90
4604;DHT22;2314;48.272;11.562;2023-08-20T01:31:34;19.90;99.90
4604;DHT22;2314;48.272;11.562;2023-08-20T01:34:01;19.80;99.90
4604;DHT22;2314;48.272;11.562;2023-08-20T01:36:29;19.70;99.90
4604;DHT22;2314;48.272;11.562;2023-08-20T01:38:56;19.60;99.90
4604;DHT22;2314;48.272;11.562;2023-08-20T01:41:23;19.60;99.90
4604;DHT22;2314;48.272;11.562;2023-08-20T01:43:50;19.50;99.90
4604;DHT22;2314;48.272;11.562;2023-08-20T01:46:18;19.40;99.90
4604;DHT22;2314;48.272;11.562;2023-08-20T01:48:45;19.40;99.90
4604;DHT22;2314;48.272;11.562;2023-08-20T01:51:12;19.40;99.90
4604;DHT22;2314;48.272;11.562;2023-08-20T01:53:39;19.30;99.90
4604;DHT22;2314;48.272;11.562;2023-08-20T01:56:11;19.20;99.90
4604;DHT22;2314;48.272;11.562;2023-08-20T01:58:38;19.20;99.90
4604;DHT22;2314;48.272;11.562;2023-08-20T02:01:06;19.10;99.90
4604;DHT22;2314;48.272;11.562;2023-08-20T02:03:36;19.10;99.90
4604;DHT22;2314;48.272;11.562;2023-08-20T02:06:03;19.00;99.90
4604;DHT22;2314;48.272;11.562;2023-08-20T02:08:30;19.00;99.90
4604;DHT22;2314;48.272;11.562;2023-08-20T02:11:01;19.00;99.90
4604;DHT22;2314;48.272;11.562;2023-08-20T02:13:29;18.90;99.90
4604;DHT22;2314;48.272;11.562;2023-08-20T02:16:00;18.80;99.90
4604;DHT22;2314;48.272;11.562;2023-08-20T02:18:27;18.80;99.90
4604;DHT22;2314;48.272;11.562;2023-08-20T02:20:56;18.80;99.90
4604;DHT22;2314;48.272;11.562;2023-08-20T02:23:23;18.70;99.90
4604;DHT22;2314;48.272;11.562;2023-08-20T02:25:50;18.70;99.90
4604;DHT22;2314;48.272;11.562;2023-08-20T02:28:17;18.70;99.90
4604;DHT22;2314;48.272;11.562;2023-08-20T02:30:46;18.70;99.90
4604;DHT22;2314;48.272;11.562;2023-08-20T02:33:13;18.60;99.90
4604;DHT22;2314;48.272;11.562;2023-08-20T02:35:40;18.50;99.90
4604;DHT22;2314;48.272;11.562;2023-08-20T02:38:12;18.50;99.90
4604;DHT22;2314;48.272;11.562;2023-08-20T02:40:40;18.50;99.90
4604;DHT22;2314;48.272;11.562;2023-08-20T02:43:07;18.40;99.90
4604;DHT22;2314;48.272;11.562;2023-08-20T02:45:40;18.40;99.90
4604;DHT22;2314;48.272;11.562;2023-08-20T02:48:08;18.40;99.90
4604;DHT22;2314;48.272;11.562;2023-08-20T02:50:35;18.30;99.90
4604;DHT22;2314;48.272;11.562;2023-08-20T02:53:03;18.30;99.90
4604;DHT22;2314;48.272;11.562;2023-08-20T02:55:32;18.30;99.90
4604;DHT22;2314;48.272;11.562;2023-08-20T02:58:01;18.20;99.90
4604;DHT22;2314;48.272;11.562;2023-08-20T03:00:28;18.20;99.90
4604;DHT22;2314;48.272;11.562;2023-08-20T03:02:55;18.20;99.90
4604;DHT22;2314;48.272;11.562;2023-08-20T03:05:23;18.20;99.90
4604;DHT22;2314;48.272;11.562;2023-08-20T03:07:50;18.20;99.90
4604;DHT22;2314;48.272;11.562;2023-08-20T03:10:17;18.10;99.90
4604;DHT22;2314;48.272;11.562;2023-08-20T03:12:46;18.10;99.90
4604;DHT22;2314;48.272;11.562;2023-08-20T03:15:13;18.10;99.90
4604;DHT22;2314;48.272;11.562;2023-08-20T03:17:40;18.00;99.90
4604;DHT22;2314;48.272;11.562;2023-08-20T03:20:08;18.00;99.90
4604;DHT22;2314;48.272;11.562;2023-08-20T03:22:37;18.00;99.90
4604;DHT22;2314;48.272;11.562;2023-08-20T03:25:05;18.10;99.90
4604;DHT22;2314;48.272;11.562;2023-08-20T03:27:32;18.00;99.90
4604;DHT22;2314;48.272;11.562;2023-08-20T03:30:01;18.10;99.90
4604;DHT22;2314;48.272;11.562;2023-08-20T03:32:28;18.00;99.90
4604;DHT22;2314;48.272;11.562;2023-08-20T03:34:55;18.00;99.90
4604;DHT22;2314;48.272;11.562;2023-08-20T03:37:24;18.00;99.90
4604;DHT22;2314;48.272;11.562;2023-08-20T03:39:51;18.00;99.90
4604;DHT22;2314;48.272;11.562;2023-08-20T03:42:18;18.00;99.90
4604;DHT22;2314;48.272;11.562;2023-08-20T03:44:45;18.00;99.90
4604;DHT22;2314;48.272;11.562;2023-08-20T03:47:14;18.00;99.90
4604;DHT22;2314;48.272;11.562;2023-08-20T03:49:41;18.00;99.90
4604;DHT22;2314;48.272;11.562;2023-08-20T03:52:08;18.00;99.90
4604;DHT22;2314;48.272;11.562;2023-08-20T03:54:35;18.10;99.90
4604;DHT22;2314;48.272;11.562;2023-08-20T03:57:02;18.10;99.90
4604;DHT22;2314;48.272;11.562;2023-08-20T03:59:29;18.00;99.90
4604;DHT22;2314;48.272;11.562;2023-08-20T04:01:57;18.00;99.90
4604;DHT22;2314;48.272;11.562;2023-08-20T04:04:26;18.00;99.90
4604;DHT22;2314;48.272;11.562;2023-08-20T04:06:53;18.00;99.90
4604;DHT22;2314;48.272;11.562;2023-08-20T04:09:20;18.00;99.90
4604;DHT22;2314;48.272;11.562;2023-08-20T04:11:48;17.90;99.90
4604;DHT22;2314;48.272;11.562;2023-08-20T04:14:15;17.90;99.90
4604;DHT22;2314;48.272;11.562;2023-08-20T04:16:42;17.90;99.90
4604;DHT22;2314;48.272;11.562;2023-08-20T04:19:09;17.90;99.90
4604;DHT22;2314;48.272;11.562;2023-08-20T04:21:37;17.80;99.90
4604;DHT22;2314;48.272;11.562;2023-08-20T04:24:05;17.80;99.90
4604;DHT22;2314;48.272;11.562;2023-08-20T04:26:32;17.80;99.90
4604;DHT22;2314;48.272;11.562;2023-08-20T04:28:59;17.70;99.90
4604;DHT22;2314;48.272;11.562;2023-08-20T04:31:26;17.80;99.90
4604;DHT22;2314;48.272;11.562;2023-08-20T04:33:53;17.80;99.90
4604;DHT22;2314;48.272;11.562;2023-08-20T04:36:21;17.80;99.90
4604;DHT22;2314;48.272;11.562;2023-08-20T04:38:49;17.70;99.90
4604;DHT22;2314;48.272;11.562;2023-08-20T04:41:17;17.70;99.90
4604;DHT22;2314;48.272;11.562;2023-08-20T04:43:44;17.70;99.90
4604;DHT22;2314;48.272;11.562;2023-08-20T04:46:11;17.70;99.90
4604;DHT22;2314;48.272;11.562;2023-08-20T04:48:38;17.70;99.90
4604;DHT22;2314;48.272;11.562;2023-08-20T04:51:05;17.60;99.90
4604;DHT22;2314;48.272;11.562;2023-08-20T04:53:32;17.60;99.90
4604;DHT22;2314;48.272;11.562;2023-08-20T04:56:00;17.60;99.90
4604;DHT22;2314;48.272;11.562;2023-08-20T04:58:28;17.60;99.90
4604;DHT22;2314;48.272;11.562;2023-08-20T05:00:55;17.60;99.90
4604;DHT22;2314;48.272;11.562;2023-08-20T05:03:22;17.60;99.90
4604;DHT22;2314;48.272;11.562;2023-08-20T05:05:49;17.60;99.90
4604;DHT22;2314;48.272;11.562;2023-08-20T05:08:16;17.60;99.90
4604;DHT22;2314;48.272;11.562;2023-08-20T05:10:43;17.70;99.90
4604;DHT22;2314;48.272;11.562;2023-08-20T05:13:12;17.70;99.90
4604;DHT22;2314;48.272;11.562;2023-08-20T05:15:39;17.80;99.90
4604;DHT22;2314;48.272;11.562;2023-08-20T05:18:06;17.80;99.90
4604;DHT22;2314;48.272;11.562;2023-08-20T05:20:33;17.80;99.90
4604;DHT22;2314;48.272;11.562;2023-08-20T05:23:00;17.90;99.90
4604;DHT22;2314;48.272;11.562;2023-08-20T05:25:28;18.00;99.90
4604;DHT22;2314;48.272;11.562;2023-08-20T05:27:55;18.00;99.90
4604;DHT22;2314;48.272;11.562;2023-08-20T05:30:24;18.10;99.90
4604;DHT22;2314;48.272;11.562;2023-08-20T05:32:51;18.20;99.90
4604;DHT22;2314;48.272;11.562;2023-08-20T05:35:18;18.30;99.90
4604;DHT22;2314;48.272;11.562;2023-08-20T05:37:45;18.40;99.90
4604;DHT22;2314;48.272;11.562;2023-08-20T05:40:12;18.40;99.90
4604;DHT22;2314;48.272;11.562;2023-08-20T05:42:39;18.60;99.90
4604;DHT22;2314;48.272;11.562;2023-08-20T05:45:07;18.70;99.90
4604;DHT22;2314;48.272;11.562;2023-08-20T05:47:35;18.80;99.90
4604;DHT22;2314;48.272;11.562;2023-08-20T05:50:03;18.90;99.90
4604;DHT22;2314;48.272;11.562;2023-08-20T05:52:31;19.00;99.90
4604;DHT22;2314;48.272;11.562;2023-08-20T05:54:58;19.10;99.90
4604;DHT22;2314;48.272;11.562;2023-08-20T05:57:25;19.20;99.90
4604;DHT22;2314;48.272;11.562;2023-08-20T05:59:51;19.30;99.90
4604;DHT22;2314;48.272;11.562;2023-08-20T06:02:18;19.40;99.90
4604;DHT22;2314;48.272;11.562;2023-08-20T06:04:47;19.50;99.90
4604;DHT22;2314;48.272;11.562;2023-08-20T06:07:15;19.70;99.90
4604;DHT22;2314;48.272;11.562;2023-08-20T06:09:42;19.80;99.90
4604;DHT22;2314;48.272;11.562;2023-08-20T06:12:09;19.90;99.90
4604;DHT22;2314;48.272;11.562;2023-08-20T06:14:36;20.00;99.90
4604;DHT22;2314;48.272;11.562;2023-08-20T06:17:04;20.10;99.90
4604;DHT22;2314;48.272;11.562;2023-08-20T06:19:31;20.20;99.90
4604;DHT22;2314;48.272;11.562;2023-08-20T06:21:59;20.30;99.90
4604;DHT22;2314;48.272;11.562;2023-08-20T06:24:26;20.40;99.90
4604;DHT22;2314;48.272;11.562;2023-08-20T06:26:53;20.50;99.90
4604;DHT22;2314;48.272;11.562;2023-08-20T06:29:20;20.60;99.90
4604;DHT22;2314;48.272;11.562;2023-08-20T06:31:48;20.60;99.90
4604;DHT22;2314;48.272;11.562;2023-08-20T06:34:16;20.70;99.90
4604;DHT22;2314;48.272;11.562;2023-08-20T06:36:43;20.80;99.90
4604;DHT22;2314;48.272;11.562;2023-08-20T06:39:11;21.00;99.90
4604;DHT22;2314;48.272;11.562;2023-08-20T06:41:40;21.10;99.90
4604;DHT22;2314;48.272;11.562;2023-08-20T06:44:07;21.20;99.90
4604;DHT22;2314;48.272;11.562;2023-08-20T06:46:34;21.30;99.90
4604;DHT22;2314;48.272;11.562;2023-08-20T06:49:01;21.50;99.90
4604;DHT22;2314;48.272;11.562;2023-08-20T06:51:29;21.60;99.90
4604;DHT22;2314;48.272;11.562;2023-08-20T06:53:56;21.70;99.90
4604;DHT22;2314;48.272;11.562;2023-08-20T06:56:25;21.80;99.90
4604;DHT22;2314;48.272;11.562;2023-08-20T06:58:52;21.80;99.90
4604;DHT22;2314;48.272;11.562;2023-08-20T07:01:19;21.90;99.90
4604;DHT22;2314;48.272;11.562;2023-08-20T07:03:46;22.00;99.90
4604;DHT22;2314;48.272;11.562;2023-08-20T07:06:14;22.10;99.90
4604;DHT22;2314;48.272;11.562;2023-08-20T07:08:42;22.20;99.90
4604;DHT22;2314;48.272;11.562;2023-08-20T07:11:09;22.40;99.90
4604;DHT22;2314;48.272;11.562;2023-08-20T07:13:37;22.60;99.90
4604;DHT22;2314;48.272;11.562;2023-08-20T07:16:04;22.70;99.90
4604;DHT22;2314;48.272;11.562;2023-08-20T07:18:31;22.80;99.90
4604;DHT22;2314;48.272;11.562;2023-08-20T07:20:58;22.90;99.90
4604;DHT22;2314;48.272;11.562;2023-08-20T07:23:25;22.90;99.90
4604;DHT22;2314;48.272;11.562;2023-08-20T07:26:04;23.00;99.90
4604;DHT22;2314;48.272;11.562;2023-08-20T07:28:32;23.20;99.90
4604;DHT22;2314;48.272;11.562;2023-08-20T07:31:14;23.30;99.90
4604;DHT22;2314;48.272;11.562;2023-08-20T07:33:41;23.50;99.90
4604;DHT22;2314;48.272;11.562;2023-08-20T07:36:12;23.70;99.90
4604;DHT22;2314;48.272;11.562;2023-08-20T07:38:40;24.00;99.90
4604;DHT22;2314;48.272;11.562;2023-08-20T07:41:08;24.30;99.90
4604;DHT22;2314;48.272;11.562;2023-08-20T07:43:37;24.50;99.90
4604;DHT22;2314;48.272;11.562;2023-08-20T07:46:05;24.70;99.90
4604;DHT22;2314;48.272;11.562;2023-08-20T07:48:35;24.70;99.90
4604;DHT22;2314;48.272;11.562;2023-08-20T07:51:02;24.70;99.90
4604;DHT22;2314;48.272;11.562;2023-08-20T07:53:30;24.60;99.90
4604;DHT22;2314;48.272;11.562;2023-08-20T07:55:57;24.60;99.90
4604;DHT22;2314;48.272;11.562;2023-08-20T07:58:24;24.60;99.90
4604;DHT22;2314;48.272;11.562;2023-08-20T08:00:51;24.70;99.90
4604;DHT22;2314;48.272;11.562;2023-08-20T08:03:18;24.80;99.90
4604;DHT22;2314;48.272;11.562;2023-08-20T08:05:50;25.10;99.90
4604;DHT22;2314;48.272;11.562;2023-08-20T08:08:18;25.40;99.90
4604;DHT22;2314;48.272;11.562;2023-08-20T08:10:46;25.60;99.90
4604;DHT22;2314;48.272;11.562;2023-08-20T08:13:13;25.70;99.90
4604;DHT22;2314;48.272;11.562;2023-08-20T08:15:41;25.80;99.90
4604;DHT22;2314;48.272;11.562;2023-08-20T08:18:08;25.80;99.90
4604;DHT22;2314;48.272;11.562;2023-08-20T08:20:36;25.90;99.90
4604;DHT22;2314;48.272;11.562;2023-08-20T08:23:04;26.10;99.90
4604;DHT22;2314;48.272;11.562;2023-08-20T08:25:31;26.40;99.90
4604;DHT22;2314;48.272;11.562;2023-08-20T08:27:58;26.40;99.90
4604;DHT22;2314;48.272;11.562;2023-08-20T08:30:25;26.50;99.90
4604;DHT22;2314;48.272;11.562;2023-08-20T08:32:52;26.70;99.90
4604;DHT22;2314;48.272;11.562;2023-08-20T08:35:19;26.90;99.90
4604;DHT22;2314;48.272;11.562;2023-08-20T08:37:47;27.20;99.90
4604;DHT22;2314;48.272;11.562;2023-08-20T08:40:15;27.80;99.90
4604;DHT22;2314;48.272;11.562;2023-08-20T08:42:43;27.70;99.90
4604;DHT22;2314;48.272;11.562;2023-08-20T08:45:12;27.90;99.90
4604;DHT22;2314;48.272;11.562;2023-08-20T08:47:40;28.50;99.90
4604;DHT22;2314;48.272;11.562;2023-08-20T08:50:08;29.60;99.90
4604;DHT22;2314;48.272;11.562;2023-08-20T08:52:37;30.70;92.10
4604;DHT22;2314;48.272;11.562;2023-08-20T08:55:05;31.40;92.90
4604;DHT22;2314;48.272;11.562;2023-08-20T08:57:35;32.30;88.30
4604;DHT22;2314;48.272;11.562;2023-08-20T09:00:03;33.00;84.80
4604;DHT22;2314;48.272;11.562;2023-08-20T09:02:32;33.50;78.20
4604;DHT22;2314;48.272;11.562;2023-08-20T09:04:59;34.00;82.10
4604;DHT22;2314;48.272;11.562;2023-08-20T09:07:26;34.40;76.50
4604;DHT22;2314;48.272;11.562;2023-08-20T09:09:57;34.80;72.20
4604;DHT22;2314;48.272;11.562;2023-08-20T09:12:26;35.10;67.90
4604;DHT22;2314;48.272;11.562;2023-08-20T09:14:55;35.30;64.10
4604;DHT22;2314;48.272;11.562;2023-08-20T09:17:26;35.60;64.20
4604;DHT22;2314;48.272;11.562;2023-08-20T09:19:55;35.70;65.90
4604;DHT22;2314;48.272;11.562;2023-08-20T09:22:23;35.70;66.80
4604;DHT22;2314;48.272;11.562;2023-08-20T09:24:55;36.10;53.20
4604;DHT22;2314;48.272;11.562;2023-08-20T09:27:23;36.30;55.60
4604;DHT22;2314;48.272;11.562;2023-08-20T09:29:51;36.60;55.20
4604;DHT22;2314;48.272;11.562;2023-08-20T09:32:21;36.50;57.70
4604;DHT22;2314;48.272;11.562;2023-08-20T09:34:52;36.70;50.00
4604;DHT22;2314;48.272;11.562;2023-08-20T09:37:21;36.60;50.70
4604;DHT22;2314;48.272;11.562;2023-08-20T09:39:49;36.60;57.80
4604;DHT22;2314;48.272;11.562;2023-08-20T09:42:16;37.00;53.20
4604;DHT22;2314;48.272;11.562;2023-08-20T09:44:44;36.60;52.80
4604;DHT22;2314;48.272;11.562;2023-08-20T09:47:13;36.70;44.40
4604;DHT22;2314;48.272;11.562;2023-08-20T09:49:44;36.60;49.30
4604;DHT22;2314;48.272;11.562;2023-08-20T09:52:16;36.60;48.20
4604;DHT22;2314;48.272;11.562;2023-08-20T09:54:54;36.60;51.10
4604;DHT22;2314;48.272;11.562;2023-08-20T09:57:32;36.50;51.40
4604;DHT22;2314;48.272;11.562;2023-08-20T10:00:01;36.70;53.30
4604;DHT22;2314;48.272;11.562;2023-08-20T10:02:31;36.80;48.20
4604;DHT22;2314;48.272;11.562;2023-08-20T10:05:01;37.00;49.60
4604;DHT22;2314;48.272;11.562;2023-08-20T10:07:29;37.00;49.90
4604;DHT22;2314;48.272;11.562;2023-08-20T10:09:59;37.10;49.50
4604;DHT22;2314;48.272;11.562;2023-08-20T10:12:27;37.20;48.10
4604;DHT22;2314;48.272;11.562;2023-08-20T10:14:55;37.20;46.20
4604;DHT22;2314;48.272;11.562;2023-08-20T10:17:23;37.20;47.80
4604;DHT22;2314;48.272;11.562;2023-08-20T10:19:51;37.00;45.90
4604;DHT22;2314;48.272;11.562;2023-08-20T10:22:20;36.80;52.10
4604;DHT22;2314;48.272;11.562;2023-08-20T10:24:49;36.90;50.40
4604;DHT22;2314;48.272;11.562;2023-08-20T10:27:25;37.00;47.30
4604;DHT22;2314;48.272;11.562;2023-08-20T10:29:53;36.70;47.60
4604;DHT22;2314;48.272;11.562;2023-08-20T10:32:44;36.60;45.60
4604;DHT22;2314;48.272;11.562;2023-08-20T10:35:12;36.60;44.90
4604;DHT22;2314;48.272;11.562;2023-08-20T10:38:00;36.50;46.40
4604;DHT22;2314;48.272;11.562;2023-08-20T10:40:52;36.40;49.60
4604;DHT22;2314;48.272;11.562;2023-08-20T10:43:27;36.40;47.90
4604;DHT22;2314;48.272;11.562;2023-08-20T10:46:05;36.50;44.20
4604;DHT22;2314;48.272;11.562;2023-08-20T10:48:35;36.50;47.50
4604;DHT22;2314;48.272;11.562;2023-08-20T10:51:10;36.70;50.10
4604;DHT22;2314;48.272;11.562;2023-08-20T10:53:40;36.90;49.00
4604;DHT22;2314;48.272;11.562;2023-08-20T10:56:12;37.20;42.80
4604;DHT22;2314;48.272;11.562;2023-08-20T10:58:44;37.30;40.10
4604;DHT22;2314;48.272;11.562;2023-08-20T11:01:14;37.30;38.50
4604;DHT22;2314;48.272;11.562;2023-08-20T11:03:41;37.10;43.50
4604;DHT22;2314;48.272;11.562;2023-08-20T11:06:10;37.00;45.40
4604;DHT22;2314;48.272;11.562;2023-08-20T11:08:39;37.00;39.90
4604;DHT22;2314;48.272;11.562;2023-08-20T11:11:08;36.80;42.20
4604;DHT22;2314;48.272;11.562;2023-08-20T11:13:35;36.80;42.00
4604;DHT22;2314;48.272;11.562;2023-08-20T11:16:03;36.60;46.20
4604;DHT22;2314;48.272;11.562;2023-08-20T11:18:32;36.60;42.90
4604;DHT22;2314;48.272;11.562;2023-08-20T11:21:00;36.50;42.70
4604;DHT22;2314;48.272;11.562;2023-08-20T11:23:28;36.30;42.90
4604;DHT22;2314;48.272;11.562;2023-08-20T11:25:57;36.30;43.20
4604;DHT22;2314;48.272;11.562;2023-08-20T11:28:26;36.30;41.80
4604;DHT22;2314;48.272;11.562;2023-08-20T11:30:54;36.30;41.10
4604;DHT22;2314;48.272;11.562;2023-08-20T11:33:22;36.30;42.30
4604;DHT22;2314;48.272;11.562;2023-08-20T11:35:50;36.20;42.40
4604;DHT22;2314;48.272;11.562;2023-08-20T11:38:18;36.30;42.10
4604;DHT22;2314;48.272;11.562;2023-08-20T11:40:46;36.40;40.80
4604;DHT22;2314;48.272;11.562;2023-08-20T11:43:14;36.60;41.70
4604;DHT22;2314;48.272;11.562;2023-08-20T11:45:46;36.80;41.10
4604;DHT22;2314;48.272;11.562;2023-08-20T11:48:15;37.00;36.40
4604;DHT22;2314;48.272;11.562;2023-08-20T11:50:42;36.90;37.20
4604;DHT22;2314;48.272;11.562;2023-08-20T11:53:10;36.90;33.70
4604;DHT22;2314;48.272;11.562;2023-08-20T11:55:39;36.80;33.40
4604;DHT22;2314;48.272;11.562;2023-08-20T11:58:10;36.60;37.80
4604;DHT22;2314;48.272;11.562;2023-08-20T12:00:39;36.50;38.90
4604;DHT22;2314;48.272;11.562;2023-08-20T12:03:08;36.70;39.10
4604;DHT22;2314;48.272;11.562;2023-08-20T12:05:35;36.80;37.80
4604;DHT22;2314;48.272;11.562;2023-08-20T12:08:03;36.80;36.30
4604;DHT22;2314;48.272;11.562;2023-08-20T12:10:32;36.80;37.50
4604;DHT22;2314;48.272;11.562;2023-08-20T12:12:59;36.90;36.70
4604;DHT22;2314;48.272;11.562;2023-08-20T12:15:26;36.90;32.20
4604;DHT22;2314;48.272;11.562;2023-08-20T12:18:02;36.50;37.20
4604;DHT22;2314;48.272;11.562;2023-08-20T12:20:31;36.40;35.30
4604;DHT22;2314;48.272;11.562;2023-08-20T12:23:00;36.30;35.90
4604;DHT22;2314;48.272;11.562;2023-08-20T12:25:30;36.30;37.30
4604;DHT22;2314;48.272;11.562;2023-08-20T12:27:59;36.20;36.60
4604;DHT22;2314;48.272;11.562;2023-08-20T12:30:27;36.30;38.50
4604;DHT22;2314;48.272;11.562;2023-08-20T12:32:54;36.30;37.40
4604;DHT22;2314;48.272;11.562;2023-08-20T12:35:22;36.30;38.00
4604;DHT22;2314;48.272;11.562;2023-08-20T12:37:49;36.30;36.50
4604;DHT22;2314;48.272;11.562;2023-08-20T12:40:16;36.10;35.60
4604;DHT22;2314;48.272;11.562;2023-08-20T12:42:43;36.10;34.40
4604;DHT22;2314;48.272;11.562;2023-08-20T12:45:10;36.10;33.20
4604;DHT22;2314;48.272;11.562;2023-08-20T12:47:39;36.20;35.20
4604;DHT22;2314;48.272;11.562;2023-08-20T12:50:06;36.20;33.30
4604;DHT22;2314;48.272;11.562;2023-08-20T12:52:35;36.30;34.50
4604;DHT22;2314;48.272;11.562;2023-08-20T12:55:03;36.30;35.10
4604;DHT22;2314;48.272;11.562;2023-08-20T12:57:33;36.30;33.80
4604;DHT22;2314;48.272;11.562;2023-08-20T13:00:01;36.10;32.60
4604;DHT22;2314;48.272;11.562;2023-08-20T13:02:33;36.10;32.60
4604;DHT22;2314;48.272;11.562;2023-08-20T13:05:01;36.10;35.40
4604;DHT22;2314;48.272;11.562;2023-08-20T13:07:29;35.90;36.40
4604;DHT22;2314;48.272;11.562;2023-08-20T13:09:58;36.00;36.10
4604;DHT22;2314;48.272;11.562;2023-08-20T13:12:27;36.10;35.20
4604;DHT22;2314;48.272;11.562;2023-08-20T13:14:55;36.10;33.70
4604;DHT22;2314;48.272;11.562;2023-08-20T13:17:23;36.20;34.90
4604;DHT22;2314;48.272;11.562;2023-08-20T13:19:50;36.20;33.70
4604;DHT22;2314;48.272;11.562;2023-08-20T13:22:17;36.30;34.00
4604;DHT22;2314;48.272;11.562;2023-08-20T13:24:44;36.20;30.40
4604;DHT22;2314;48.272;11.562;2023-08-20T13:27:13;35.90;35.30
4604;DHT22;2314;48.272;11.562;2023-08-20T13:29:40;35.80;33.80
4604;DHT22;2314;48.272;11.562;2023-08-20T13:32:07;35.70;35.10
4604;DHT22;2314;48.272;11.562;2023-08-20T13:34:34;35.70;30.30
4604;DHT22;2314;48.272;11.562;2023-08-20T13:37:01;35.60;33.90
4604;DHT22;2314;48.272;11.562;2023-08-20T13:39:28;35.60;35.00
4604;DHT22;2314;48.272;11.562;2023-08-20T13:41:55;35.60;33.50
4604;DHT22;2314;48.272;11.562;2023-08-20T13:44:24;35.70;32.70
4604;DHT22;2314;48.272;11.562;2023-08-20T13:46:51;35.70;34.60
4604;DHT22;2314;48.272;11.562;2023-08-20T13:49:18;35.70;34.90
4604;DHT22;2314;48.272;11.562;2023-08-20T13:51:45;35.70;32.80
4604;DHT22;2314;48.272;11.562;2023-08-20T13:54:12;35.60;37.20
4604;DHT22;2314;48.272;11.562;2023-08-20T13:56:39;35.70;35.20
4604;DHT22;2314;48.272;11.562;2023-08-20T13:59:06;35.60;38.20
4604;DHT22;2314;48.272;11.562;2023-08-20T14:01:36;35.50;39.00
4604;DHT22;2314;48.272;11.562;2023-08-20T14:04:04;35.50;40.10
4604;DHT22;2314;48.272;11.562;2023-08-20T14:06:31;35.40;37.90
4604;DHT22;2314;48.272;11.562;2023-08-20T14:08:58;35.40;38.50
4604;DHT22;2314;48.272;11.562;2023-08-20T14:11:25;35.50;40.00
4604;DHT22;2314;48.272;11.562;2023-08-20T14:13:52;35.60;36.90
4604;DHT22;2314;48.272;11.562;2023-08-20T14:16:19;35.50;37.30
4604;DHT22;2314;48.272;11.562;2023-08-20T14:18:48;35.30;38.40
4604;DHT22;2314;48.272;11.562;2023-08-20T14:21:15;35.20;38.00
4604;DHT22;2314;48.272;11.562;2023-08-20T14:23:42;35.20;38.90
4604;DHT22;2314;48.272;11.562;2023-08-20T14:26:09;35.20;37.50
4604;DHT22;2314;48.272;11.562;2023-08-20T14:28:36;35.20;39.50
4604;DHT22;2314;48.272;11.562;2023-08-20T14:31:04;35.30;37.10
4604;DHT22;2314;48.272;11.562;2023-08-20T14:33:31;35.40;37.90
4604;DHT22;2314;48.272;11.562;2023-08-20T14:35:59;35.30;38.90
4604;DHT22;2314;48.272;11.562;2023-08-20T14:38:28;35.20;40.30
4604;DHT22;2314;48.272;11.562;2023-08-20T14:40:59;35.20;38.30
4604;DHT22;2314;48.272;11.562;2023-08-20T14:43:27;35.00;39.50
4604;DHT22;2314;48.272;11.562;2023-08-20T14:45:54;34.80;41.00
4604;DHT22;2314;48.272;11.562;2023-08-20T14:48:21;34.60;39.60
4604;DHT22;2314;48.272;11.562;2023-08-20T14:50:48;34.60;41.50
4604;DHT22;2314;48.272;11.562;2023-08-20T14:53:17;34.60;39.00
4604;DHT22;2314;48.272;11.562;2023-08-20T14:55:44;34.60;36.40
4604;DHT22;2314;48.272;11.562;2023-08-20T14:58:12;34.50;36.10
4604;DHT22;2314;48.272;11.562;2023-08-20T15:00:39;34.60;40.50
4604;DHT22;2314;48.272;11.562;2023-08-20T15:03:06;34.60;39.80
4604;DHT22;2314;48.272;11.562;2023-08-20T15:05:34;34.60;40.20
4604;DHT22;2314;48.272;11.562;2023-08-20T15:08:01;34.40;42.50
4604;DHT22;2314;48.272;11.562;2023-08-20T15:10:31;34.20;42.30
4604;DHT22;2314;48.272;11.562;2023-08-20T15:12:58;34.10;44.10
4604;DHT22;2314;48.272;11.562;2023-08-20T15:15:25;34.10;44.10
4604;DHT22;2314;48.272;11.562;2023-08-20T15:17:54;34.10;44.30
4604;DHT22;2314;48.272;11.562;2023-08-20T15:20:21;34.20;45.50
4604;DHT22;2314;48.272;11.562;2023-08-20T15:22:49;34.30;44.10
4604;DHT22;2314;48.272;11.562;2023-08-20T15:25:16;34.20;44.70
4604;DHT22;2314;48.272;11.562;2023-08-20T15:27:45;34.10;45.80
4604;DHT22;2314;48.272;11.562;2023-08-20T15:30:12;34.00;43.50
4604;DHT22;2314;48.272;11.562;2023-08-20T15:32:40;33.80;44.50
4604;DHT22;2314;48.272;11.562;2023-08-20T15:35:07;33.60;47.60
4604;DHT22;2314;48.272;11.562;2023-08-20T15:37:35;33.60;46.60
4604;DHT22;2314;48.272;11.562;2023-08-20T15:40:02;33.60;46.70
4604;DHT22;2314;48.272;11.562;2023-08-20T15:42:32;33.60;46.70
4604;DHT22;2314;48.272;11.562;2023-08-20T15:45:01;33.60;48.10
4604;DHT22;2314;48.272;11.562;2023-08-20T15:47:28;33.60;47.40
4604;DHT22;2314;48.272;11.562;2023-08-20T15:49:55;33.60;46.20
4604;DHT22;2314;48.272;11.562;2023-08-20T15:52:22;33.50;44.20
4604;DHT22;2314;48.272;11.562;2023-08-20T15:54:49;33.40;46.80
4604;DHT22;2314;48.272;11.562;2023-08-20T15:57:16;33.40;47.60